sensor_id;sensor_type;location;lat;lon;timestamp;temperature;humidity
31527;DHT22;18136;42.236;-73.040;2023-05-07T00:02:09;12.80;99.90
31527;DHT22;18136;42.236;-73.040;2023-05-07T00:04:35;12.70;99.90
31527;DHT22;18136;42.236;-73.040;2023-05-07T00:07:03;12.60;99.90
31527;DHT22;18136;42.236;-73.040;2023-05-07T00:09:29;12.50;99.90
31527;DHT22;18136;42.236;-73.040;2023-05-07T00:11:56;12.50;99.90
31527;DHT22;18136;42.236;-73.040;2023-05-07T00:14:22;12.50;99.90
31527;DHT22;18136;42.236;-73.040;2023-05-07T00:16:48;12.40;99.90
31527;DHT22;18136;42.236;-73.040;2023-05-07T00:19:14;12.30;99.90
31527;DHT22;18136;42.236;-73.040;2023-05-07T00:21:41;12.20;99.90
31527;DHT22;18136;42.236;-73.040;2023-05-07T00:24:07;12.20;99.90
31527;DHT22;18136;42.236;-73.040;2023-05-07T00:26:33;12.10;99.90
31527;DHT22;18136;42.236;-73.040;2023-05-07T00:29:00;12.00;99.90
31527;DHT22;18136;42.236;-73.040;2023-05-07T00:31:26;11.90;99.90
31527;DHT22;18136;42.236;-73.040;2023-05-07T00:33:52;11.90;99.90
31527;DHT22;18136;42.236;-73.040;2023-05-07T00:36:18;11.80;99.90
31527;DHT22;18136;42.236;-73.040;2023-05-07T00:38:45;11.80;99.90
31527;DHT22;18136;42.236;-73.040;2023-05-07T00:41:11;11.70;99.90
31527;DHT22;18136;42.236;-73.040;2023-05-07T00:43:38;11.60;99.90
31527;DHT22;18136;42.236;-73.040;2023-05-07T00:46:04;11.60;99.90
31527;DHT22;18136;42.236;-73.040;2023-05-07T00:48:31;11.50;99.90
31527;DHT22;18136;42.236;-73.040;2023-05-07T00:50:58;11.50;99.90
31527;DHT22;18136;42.236;-73.040;2023-05-07T00:53:24;11.40;99.90
31527;DHT22;18136;42.236;-73.040;2023-05-07T00:55:52;11.40;99.90
31527;DHT22;18136;42.236;-73.040;2023-05-07T00:58:19;11.30;99.90
31527;DHT22;18136;42.236;-73.040;2023-05-07T01:00:46;11.30;99.90
31527;DHT22;18136;42.236;-73.040;2023-05-07T01:03:12;11.20;99.90
31527;DHT22;18136;42.236;-73.040;2023-05-07T01:05:38;11.10;99.90
31527;DHT22;18136;42.236;-73.040;2023-05-07T01:08:06;11.00;99.90
31527;DHT22;18136;42.236;-73.040;2023-05-07T01:10:32;11.00;99.90
31527;DHT22;18136;42.236;-73.040;2023-05-07T01:12:59;11.00;99.90
31527;DHT22;18136;42.236;-73.040;2023-05-07T01:15:26;10.90;99.90
31527;DHT22;18136;42.236;-73.040;2023-05-07T01:17:52;10.90;99.90
31527;DHT22;18136;42.236;-73.040;2023-05-07T01:20:20;10.80;99.90
31527;DHT22;18136;42.236;-73.040;2023-05-07T01:22:49;10.80;99.90
31527;DHT22;18136;42.236;-73.040;2023-05-07T01:25:16;10.70;99.90
31527;DHT22;18136;42.236;-73.040;2023-05-07T01:27:42;10.70;99.90
31527;DHT22;18136;42.236;-73.040;2023-05-07T01:30:08;10.70;99.90
31527;DHT22;18136;42.236;-73.040;2023-05-07T01:32:40;10.70;99.90
31527;DHT22;18136;42.236;-73.040;2023-05-07T01:35:11;10.60;99.90
31527;DHT22;18136;42.236;-73.040;2023-05-07T01:37:39;10.60;99.90
31527;DHT22;18136;42.236;-73.040;2023-05-07T01:40:07;10.50;99.90
31527;DHT22;18136;42.236;-73.040;2023-05-07T01:42:34;10.50;99.90
31527;DHT22;18136;42.236;-73.040;2023-05-07T01:45:02;10.50;99.90
31527;DHT22;18136;42.236;-73.040;2023-05-07T01:47:32;10.40;99.90
31527;DHT22;18136;42.236;-73.040;2023-05-07T01:49:58;10.40;99.90
31527;DHT22;18136;42.236;-73.040;2023-05-07T01:52:25;10.40;99.90
31527;DHT22;18136;42.236;-73.040;2023-05-07T01:54:51;10.40;99.90
31527;DHT22;18136;42.236;-73.040;2023-05-07T01:57:17;10.30;99.90
31527;DHT22;18136;42.236;-73.040;2023-05-07T01:59:43;10.30;99.90
31527;DHT22;18136;42.236;-73.040;2023-05-07T02:02:09;10.30;99.90
31527;DHT22;18136;42.236;-73.040;2023-05-07T02:04:35;10.30;99.90
31527;DHT22;18136;42.236;-73.040;2023-05-07T02:07:03;10.20;99.90
31527;DHT22;18136;42.236;-73.040;2023-05-07T02:09:29;10.20;99.90
31527;DHT22;18136;42.236;-73.040;2023-05-07T02:11:55;10.30;99.90
31527;DHT22;18136;42.236;-73.040;2023-05-07T02:14:21;10.20;99.90
31527;DHT22;18136;42.236;-73.040;2023-05-07T02:16:47;10.20;99.90
31527;DHT22;18136;42.236;-73.040;2023-05-07T02:19:13;10.20;99.90
31527;DHT22;18136;42.236;-73.040;2023-05-07T02:21:39;10.20;99.90
31527;DHT22;18136;42.236;-73.040;2023-05-07T02:24:06;10.10;99.90
31527;DHT22;18136;42.236;-73.040;2023-05-07T02:26:32;10.10;99.90
31527;DHT22;18136;42.236;-73.040;2023-05-07T02:28:58;10.10;99.90
31527;DHT22;18136;42.236;-73.040;2023-05-07T02:31:24;10.10;99.90
31527;DHT22;18136;42.236;-73.040;2023-05-07T02:33:50;10.10;99.90
31527;DHT22;18136;42.236;-73.040;2023-05-07T02:36:16;10.10;99.90
31527;DHT22;18136;42.236;-73.040;2023-05-07T02:38:43;10.10;99.90
31527;DHT22;18136;42.236;-73.040;2023-05-07T02:41:09;10.10;99.90
31527;DHT22;18136;42.236;-73.040;2023-05-07T02:43:35;10.10;99.90
31527;DHT22;18136;42.236;-73.040;2023-05-07T02:46:05;10.00;99.90
31527;DHT22;18136;42.236;-73.040;2023-05-07T02:48:31;10.00;99.90
31527;DHT22;18136;42.236;-73.040;2023-05-07T02:50:58;10.00;99.90
31527;DHT22;18136;42.236;-73.040;2023-05-07T02:53:25;10.00;99.90
31527;DHT22;18136;42.236;-73.040;2023-05-07T02:55:56;10.00;99.90
31527;DHT22;18136;42.236;-73.040;2023-05-07T02:58:23;9.90;99.90
31527;DHT22;18136;42.236;-73.040;2023-05-07T03:00:49;9.90;99.90
31527;DHT22;18136;42.236;-73.040;2023-05-07T03:03:16;9.90;99.90
31527;DHT22;18136;42.236;-73.040;2023-05-07T03:05:42;9.90;99.90
31527;DHT22;18136;42.236;-73.040;2023-05-07T03:08:09;9.80;99.90
31527;DHT22;18136;42.236;-73.040;2023-05-07T03:10:36;9.80;99.90
31527;DHT22;18136;42.236;-73.040;2023-05-07T03:13:04;9.80;99.90
31527;DHT22;18136;42.236;-73.040;2023-05-07T03:15:31;9.70;99.90
31527;DHT22;18136;42.236;-73.040;2023-05-07T03:17:57;9.70;99.90
31527;DHT22;18136;42.236;-73.040;2023-05-07T03:20:23;9.60;99.90
31527;DHT22;18136;42.236;-73.040;2023-05-07T03:22:52;9.60;99.90
31527;DHT22;18136;42.236;-73.040;2023-05-07T03:25:18;9.60;99.90
31527;DHT22;18136;42.236;-73.040;2023-05-07T03:27:44;9.60;99.90
31527;DHT22;18136;42.236;-73.040;2023-05-07T03:30:11;9.50;99.90
31527;DHT22;18136;42.236;-73.040;2023-05-07T03:32:38;9.50;99.90
31527;DHT22;18136;42.236;-73.040;2023-05-07T03:35:04;9.40;99.90
31527;DHT22;18136;42.236;-73.040;2023-05-07T03:37:31;9.30;99.90
31527;DHT22;18136;42.236;-73.040;2023-05-07T03:39:57;9.30;99.90
31527;DHT22;18136;42.236;-73.040;2023-05-07T03:42:23;9.30;99.90
31527;DHT22;18136;42.236;-73.040;2023-05-07T03:44:50;9.30;99.90
31527;DHT22;18136;42.236;-73.040;2023-05-07T03:47:16;9.30;99.90
31527;DHT22;18136;42.236;-73.040;2023-05-07T03:49:43;9.30;99.90
31527;DHT22;18136;42.236;-73.040;2023-05-07T03:52:09;9.30;99.90
31527;DHT22;18136;42.236;-73.040;2023-05-07T03:54:36;9.20;99.90
31527;DHT22;18136;42.236;-73.040;2023-05-07T03:57:02;9.20;99.90
31527;DHT22;18136;42.236;-73.040;2023-05-07T03:59:28;9.10;99.90
31527;DHT22;18136;42.236;-73.040;2023-05-07T04:01:55;9.10;99.90
31527;DHT22;18136;42.236;-73.040;2023-05-07T04:04:21;9.10;99.90
31527;DHT22;18136;42.236;-73.040;2023-05-07T04:06:48;9.00;99.90
31527;DHT22;18136;42.236;-73.040;2023-05-07T04:09:14;9.00;99.90
31527;DHT22;18136;42.236;-73.040;2023-05-07T04:11:40;9.00;99.90
31527;DHT22;18136;42.236;-73.040;2023-05-07T04:14:07;8.90;99.90
31527;DHT22;18136;42.236;-73.040;2023-05-07T04:16:35;8.90;99.90
31527;DHT22;18136;42.236;-73.040;2023-05-07T04:19:01;8.80;99.90
31527;DHT22;18136;42.236;-73.040;2023-05-07T04:21:27;8.80;99.90
31527;DHT22;18136;42.236;-73.040;2023-05-07T04:23:54;8.80;99.90
31527;DHT22;18136;42.236;-73.040;2023-05-07T04:26:20;8.80;99.90
31527;DHT22;18136;42.236;-73.040;2023-05-07T04:28:47;8.80;99.90
31527;DHT22;18136;42.236;-73.040;2023-05-07T04:31:13;8.70;99.90
31527;DHT22;18136;42.236;-73.040;2023-05-07T04:33:39;8.70;99.90
31527;DHT22;18136;42.236;-73.040;2023-05-07T04:36:06;8.70;99.90
31527;DHT22;18136;42.236;-73.040;2023-05-07T04:38:32;8.70;99.90
31527;DHT22;18136;42.236;-73.040;2023-05-07T04:41:03;8.60;99.90
31527;DHT22;18136;42.236;-73.040;2023-05-07T04:43:31;8.60;99.90
31527;DHT22;18136;42.236;-73.040;2023-05-07T04:45:57;8.60;99.90
31527;DHT22;18136;42.236;-73.040;2023-05-07T04:48:23;8.60;99.90
31527;DHT22;18136;42.236;-73.040;2023-05-07T04:50:50;8.50;99.90
31527;DHT22;18136;42.236;-73.040;2023-05-07T04:53:17;8.50;99.90
31527;DHT22;18136;42.236;-73.040;2023-05-07T04:55:44;8.50;99.90
31527;DHT22;18136;42.236;-73.040;2023-05-07T04:58:11;8.40;99.90
31527;DHT22;18136;42.236;-73.040;2023-05-07T05:00:38;8.40;99.90
31527;DHT22;18136;42.236;-73.040;2023-05-07T05:03:08;8.40;99.90
31527;DHT22;18136;42.236;-73.040;2023-05-07T05:05:34;8.30;99.90
31527;DHT22;18136;42.236;-73.040;2023-05-07T05:08:01;8.30;99.90
31527;DHT22;18136;42.236;-73.040;2023-05-07T05:10:27;8.30;99.90
31527;DHT22;18136;42.236;-73.040;2023-05-07T05:12:53;8.20;99.90
31527;DHT22;18136;42.236;-73.040;2023-05-07T05:15:20;8.20;99.90
31527;DHT22;18136;42.236;-73.040;2023-05-07T05:17:46;8.10;99.90
31527;DHT22;18136;42.236;-73.040;2023-05-07T05:20:13;8.10;99.90
31527;DHT22;18136;42.236;-73.040;2023-05-07T05:22:41;8.10;99.90
31527;DHT22;18136;42.236;-73.040;2023-05-07T05:25:07;8.10;99.90
31527;DHT22;18136;42.236;-73.040;2023-05-07T05:27:34;8.10;99.90
31527;DHT22;18136;42.236;-73.040;2023-05-07T05:30:01;8.10;99.90
31527;DHT22;18136;42.236;-73.040;2023-05-07T05:32:28;8.10;99.90
31527;DHT22;18136;42.236;-73.040;2023-05-07T05:34:54;8.00;99.90
31527;DHT22;18136;42.236;-73.040;2023-05-07T05:37:21;8.00;99.90
31527;DHT22;18136;42.236;-73.040;2023-05-07T05:39:47;7.90;99.90
31527;DHT22;18136;42.236;-73.040;2023-05-07T05:42:14;7.90;99.90
31527;DHT22;18136;42.236;-73.040;2023-05-07T05:44:43;7.90;99.90
31527;DHT22;18136;42.236;-73.040;2023-05-07T05:47:09;7.80;99.90
31527;DHT22;18136;42.236;-73.040;2023-05-07T05:49:35;7.90;99.90
31527;DHT22;18136;42.236;-73.040;2023-05-07T05:52:02;7.80;99.90
31527;DHT22;18136;42.236;-73.040;2023-05-07T05:54:28;7.80;99.90
31527;DHT22;18136;42.236;-73.040;2023-05-07T05:56:54;7.80;99.90
31527;DHT22;18136;42.236;-73.040;2023-05-07T05:59:21;7.80;99.90
31527;DHT22;18136;42.236;-73.040;2023-05-07T06:01:48;7.80;99.90
31527;DHT22;18136;42.236;-73.040;2023-05-07T06:04:17;7.70;99.90
31527;DHT22;18136;42.236;-73.040;2023-05-07T06:06:43;7.70;99.90
31527;DHT22;18136;42.236;-73.040;2023-05-07T06:09:09;7.60;99.90
31527;DHT22;18136;42.236;-73.040;2023-05-07T06:11:36;7.70;99.90
31527;DHT22;18136;42.236;-73.040;2023-05-07T06:14:02;7.60;99.90
31527;DHT22;18136;42.236;-73.040;2023-05-07T06:16:29;7.60;99.90
31527;DHT22;18136;42.236;-73.040;2023-05-07T06:19:04;7.60;99.90
31527;DHT22;18136;42.236;-73.040;2023-05-07T06:21:31;7.60;99.90
31527;DHT22;18136;42.236;-73.040;2023-05-07T06:23:57;7.60;99.90
31527;DHT22;18136;42.236;-73.040;2023-05-07T06:26:23;7.50;99.90
31527;DHT22;18136;42.236;-73.040;2023-05-07T06:28:50;7.60;99.90
31527;DHT22;18136;42.236;-73.040;2023-05-07T06:31:18;7.50;99.90
31527;DHT22;18136;42.236;-73.040;2023-05-07T06:33:48;7.50;99.90
31527;DHT22;18136;42.236;-73.040;2023-05-07T06:36:15;7.60;99.90
31527;DHT22;18136;42.236;-73.040;2023-05-07T06:38:41;7.50;99.90
31527;DHT22;18136;42.236;-73.040;2023-05-07T06:41:08;7.50;99.90
31527;DHT22;18136;42.236;-73.040;2023-05-07T06:43:34;7.40;99.90
31527;DHT22;18136;42.236;-73.040;2023-05-07T06:46:04;7.40;99.90
31527;DHT22;18136;42.236;-73.040;2023-05-07T06:48:31;7.40;99.90
31527;DHT22;18136;42.236;-73.040;2023-05-07T06:50:57;7.40;99.90
31527;DHT22;18136;42.236;-73.040;2023-05-07T06:53:24;7.40;99.90
31527;DHT22;18136;42.236;-73.040;2023-05-07T06:55:51;7.30;99.90
31527;DHT22;18136;42.236;-73.040;2023-05-07T06:58:18;7.30;99.90
31527;DHT22;18136;42.236;-73.040;2023-05-07T07:00:44;7.30;99.90
31527;DHT22;18136;42.236;-73.040;2023-05-07T07:03:11;7.30;99.90
31527;DHT22;18136;42.236;-73.040;2023-05-07T07:05:37;7.20;99.90
31527;DHT22;18136;42.236;-73.040;2023-05-07T07:08:04;7.20;99.90
31527;DHT22;18136;42.236;-73.040;2023-05-07T07:10:31;7.20;99.90
31527;DHT22;18136;42.236;-73.040;2023-05-07T07:12:57;7.20;99.90
31527;DHT22;18136;42.236;-73.040;2023-05-07T07:15:24;7.10;99.90
31527;DHT22;18136;42.236;-73.040;2023-05-07T07:17:51;7.10;99.90
31527;DHT22;18136;42.236;-73.040;2023-05-07T07:20:17;7.10;99.90
31527;DHT22;18136;42.236;-73.040;2023-05-07T07:22:44;7.10;99.90
31527;DHT22;18136;42.236;-73.040;2023-05-07T07:25:10;7.10;99.90
31527;DHT22;18136;42.236;-73.040;2023-05-07T07:27:37;7.10;99.90
31527;DHT22;18136;42.236;-73.040;2023-05-07T07:30:06;7.10;99.90
31527;DHT22;18136;42.236;-73.040;2023-05-07T07:32:34;7.10;99.90
31527;DHT22;18136;42.236;-73.040;2023-05-07T07:35:00;7.10;99.90
31527;DHT22;18136;42.236;-73.040;2023-05-07T07:37:27;7.20;99.90
31527;DHT22;18136;42.236;-73.040;2023-05-07T07:39:53;7.10;99.90
31527;DHT22;18136;42.236;-73.040;2023-05-07T07:42:22;7.10;99.90
31527;DHT22;18136;42.236;-73.040;2023-05-07T07:44:49;7.10;99.90
31527;DHT22;18136;42.236;-73.040;2023-05-07T07:47:15;7.10;99.90
31527;DHT22;18136;42.236;-73.040;2023-05-07T07:49:41;7.00;99.90
31527;DHT22;18136;42.236;-73.040;2023-05-07T07:52:08;7.10;99.90
31527;DHT22;18136;42.236;-73.040;2023-05-07T07:54:34;7.00;99.90
31527;DHT22;18136;42.236;-73.040;2023-05-07T07:57:00;7.10;99.90
31527;DHT22;18136;42.236;-73.040;2023-05-07T07:59:27;7.10;99.90
31527;DHT22;18136;42.236;-73.040;2023-05-07T08:01:53;7.10;99.90
31527;DHT22;18136;42.236;-73.040;2023-05-07T08:04:22;7.10;99.90
31527;DHT22;18136;42.236;-73.040;2023-05-07T08:06:49;7.10;99.90
31527;DHT22;18136;42.236;-73.040;2023-05-07T08:09:15;7.10;99.90
31527;DHT22;18136;42.236;-73.040;2023-05-07T08:11:48;7.10;99.90
31527;DHT22;18136;42.236;-73.040;2023-05-07T08:14:17;7.10;99.90
31527;DHT22;18136;42.236;-73.040;2023-05-07T08:16:43;7.00;99.90
31527;DHT22;18136;42.236;-73.040;2023-05-07T08:19:10;7.10;99.90
31527;DHT22;18136;42.236;-73.040;2023-05-07T08:21:39;7.00;99.90
31527;DHT22;18136;42.236;-73.040;2023-05-07T08:24:06;7.10;99.90
31527;DHT22;18136;42.236;-73.040;2023-05-07T08:26:32;7.10;99.90
31527;DHT22;18136;42.236;-73.040;2023-05-07T08:28:59;7.10;99.90
31527;DHT22;18136;42.236;-73.040;2023-05-07T08:31:25;7.10;99.90
31527;DHT22;18136;42.236;-73.040;2023-05-07T08:33:52;7.10;99.90
31527;DHT22;18136;42.236;-73.040;2023-05-07T08:36:18;7.00;99.90
31527;DHT22;18136;42.236;-73.040;2023-05-07T08:38:45;7.10;99.90
31527;DHT22;18136;42.236;-73.040;2023-05-07T08:41:11;7.10;99.90
31527;DHT22;18136;42.236;-73.040;2023-05-07T08:43:38;7.00;99.90
31527;DHT22;18136;42.236;-73.040;2023-05-07T08:46:09;7.10;99.90
31527;DHT22;18136;42.236;-73.040;2023-05-07T08:48:39;7.00;99.90
31527;DHT22;18136;42.236;-73.040;2023-05-07T08:51:06;7.00;99.90
31527;DHT22;18136;42.236;-73.040;2023-05-07T08:53:33;7.00;99.90
31527;DHT22;18136;42.236;-73.040;2023-05-07T08:56:00;7.00;99.90
31527;DHT22;18136;42.236;-73.040;2023-05-07T08:58:26;7.00;99.90
31527;DHT22;18136;42.236;-73.040;2023-05-07T09:00:53;7.00;99.90
31527;DHT22;18136;42.236;-73.040;2023-05-07T09:03:20;7.00;99.90
31527;DHT22;18136;42.236;-73.040;2023-05-07T09:05:46;7.00;99.90
31527;DHT22;18136;42.236;-73.040;2023-05-07T09:08:15;7.00;99.90
31527;DHT22;18136;42.236;-73.040;2023-05-07T09:10:44;6.90;99.90
31527;DHT22;18136;42.236;-73.040;2023-05-07T09:13:12;6.90;99.90
31527;DHT22;18136;42.236;-73.040;2023-05-07T09:15:40;6.90;99.90
31527;DHT22;18136;42.236;-73.040;2023-05-07T09:18:06;6.90;99.90
31527;DHT22;18136;42.236;-73.040;2023-05-07T09:20:41;6.90;99.90
31527;DHT22;18136;42.236;-73.040;2023-05-07T09:23:08;7.00;99.90
31527;DHT22;18136;42.236;-73.040;2023-05-07T09:25:36;6.90;99.90
31527;DHT22;18136;42.236;-73.040;2023-05-07T09:28:03;6.90;99.90
31527;DHT22;18136;42.236;-73.040;2023-05-07T09:30:33;6.90;99.90
31527;DHT22;18136;42.236;-73.040;2023-05-07T09:33:02;6.90;99.90
31527;DHT22;18136;42.236;-73.040;2023-05-07T09:35:29;6.90;99.90
31527;DHT22;18136;42.236;-73.040;2023-05-07T09:38:04;6.90;99.90
31527;DHT22;18136;42.236;-73.040;2023-05-07T09:40:31;6.90;99.90
31527;DHT22;18136;42.236;-73.040;2023-05-07T09:43:13;6.90;99.90
31527;DHT22;18136;42.236;-73.040;2023-05-07T09:45:43;6.80;99.90
31527;DHT22;18136;42.236;-73.040;2023-05-07T09:48:10;6.80;99.90
31527;DHT22;18136;42.236;-73.040;2023-05-07T09:50:41;6.80;99.90
31527;DHT22;18136;42.236;-73.040;2023-05-07T09:53:11;6.80;99.90
31527;DHT22;18136;42.236;-73.040;2023-05-07T09:55:39;6.80;99.90
31527;DHT22;18136;42.236;-73.040;2023-05-07T09:58:06;6.80;99.90
31527;DHT22;18136;42.236;-73.040;2023-05-07T10:00:33;6.80;99.90
31527;DHT22;18136;42.236;-73.040;2023-05-07T10:03:00;6.80;99.90
31527;DHT22;18136;42.236;-73.040;2023-05-07T10:05:27;6.80;99.90
31527;DHT22;18136;42.236;-73.040;2023-05-07T10:07:54;6.80;99.90
31527;DHT22;18136;42.236;-73.040;2023-05-07T10:10:24;6.80;99.90
31527;DHT22;18136;42.236;-73.040;2023-05-07T10:12:54;6.80;99.90
31527;DHT22;18136;42.236;-73.040;2023-05-07T10:15:21;6.80;99.90
31527;DHT22;18136;42.236;-73.040;2023-05-07T10:17:48;6.80;99.90
31527;DHT22;18136;42.236;-73.040;2023-05-07T10:20:15;6.80;99.90
31527;DHT22;18136;42.236;-73.040;2023-05-07T10:22:45;6.80;99.90
31527;DHT22;18136;42.236;-73.040;2023-05-07T10:25:32;6.70;99.90
31527;DHT22;18136;42.236;-73.040;2023-05-07T10:28:06;6.80;99.90
31527;DHT22;18136;42.236;-73.040;2023-05-07T10:33:19;6.80;99.90
31527;DHT22;18136;42.236;-73.040;2023-05-07T10:35:48;6.70;99.90
31527;DHT22;18136;42.236;-73.040;2023-05-07T10:38:22;6.70;99.90
31527;DHT22;18136;42.236;-73.040;2023-05-07T10:40:48;6.80;99.90
31527;DHT22;18136;42.236;-73.040;2023-05-07T10:43:16;6.80;99.90
31527;DHT22;18136;42.236;-73.040;2023-05-07T10:45:45;6.90;99.90
31527;DHT22;18136;42.236;-73.040;2023-05-07T10:48:28;6.90;99.90
31527;DHT22;18136;42.236;-73.040;2023-05-07T10:51:22;7.00;99.90
31527;DHT22;18136;42.236;-73.040;2023-05-07T10:56:38;7.00;99.90
31527;DHT22;18136;42.236;-73.040;2023-05-07T10:59:33;7.10;99.90
31527;DHT22;18136;42.236;-73.040;2023-05-07T11:02:06;7.20;99.90
31527;DHT22;18136;42.236;-73.040;2023-05-07T11:04:35;7.20;99.90
31527;DHT22;18136;42.236;-73.040;2023-05-07T11:07:26;7.20;99.90
31527;DHT22;18136;42.236;-73.040;2023-05-07T11:09:57;7.20;99.90
31527;DHT22;18136;42.236;-73.040;2023-05-07T11:15:07;7.40;99.90
31527;DHT22;18136;42.236;-73.040;2023-05-07T11:17:34;7.50;99.90
31527;DHT22;18136;42.236;-73.040;2023-05-07T11:20:04;7.50;99.90
31527;DHT22;18136;42.236;-73.040;2023-05-07T11:25:03;7.70;99.90
31527;DHT22;18136;42.236;-73.040;2023-05-07T11:27:30;7.80;99.90
31527;DHT22;18136;42.236;-73.040;2023-05-07T11:30:00;7.90;99.90
31527;DHT22;18136;42.236;-73.040;2023-05-07T11:32:31;8.00;99.90
31527;DHT22;18136;42.236;-73.040;2023-05-07T11:35:00;8.10;99.90
31527;DHT22;18136;42.236;-73.040;2023-05-07T11:37:27;8.10;99.90
31527;DHT22;18136;42.236;-73.040;2023-05-07T11:40:08;8.20;99.90
31527;DHT22;18136;42.236;-73.040;2023-05-07T11:42:40;8.20;99.90
31527;DHT22;18136;42.236;-73.040;2023-05-07T11:45:10;8.30;99.90
31527;DHT22;18136;42.236;-73.040;2023-05-07T11:47:41;8.30;99.90
31527;DHT22;18136;42.236;-73.040;2023-05-07T11:50:09;8.50;99.90
31527;DHT22;18136;42.236;-73.040;2023-05-07T11:52:50;8.50;99.90
31527;DHT22;18136;42.236;-73.040;2023-05-07T11:55:19;8.70;99.90
31527;DHT22;18136;42.236;-73.040;2023-05-07T11:57:47;8.80;99.90
31527;DHT22;18136;42.236;-73.040;2023-05-07T12:00:16;8.80;99.90
31527;DHT22;18136;42.236;-73.040;2023-05-07T12:02:44;8.90;99.90
31527;DHT22;18136;42.236;-73.040;2023-05-07T12:05:11;8.90;99.90
31527;DHT22;18136;42.236;-73.040;2023-05-07T12:07:41;9.00;99.90
31527;DHT22;18136;42.236;-73.040;2023-05-07T12:10:13;9.10;99.90
31527;DHT22;18136;42.236;-73.040;2023-05-07T12:12:46;9.20;99.90
31527;DHT22;18136;42.236;-73.040;2023-05-07T12:15:16;9.30;99.90
31527;DHT22;18136;42.236;-73.040;2023-05-07T12:17:51;9.40;99.90
31527;DHT22;18136;42.236;-73.040;2023-05-07T12:20:21;9.50;99.90
31527;DHT22;18136;42.236;-73.040;2023-05-07T12:22:48;9.50;99.90
31527;DHT22;18136;42.236;-73.040;2023-05-07T12:25:19;9.70;99.90
31527;DHT22;18136;42.236;-73.040;2023-05-07T12:27:52;9.80;99.90
31527;DHT22;18136;42.236;-73.040;2023-05-07T12:30:18;9.90;99.90
31527;DHT22;18136;42.236;-73.040;2023-05-07T12:32:53;10.00;99.90
31527;DHT22;18136;42.236;-73.040;2023-05-07T12:35:41;10.10;99.90
31527;DHT22;18136;42.236;-73.040;2023-05-07T12:38:15;10.20;99.90
31527;DHT22;18136;42.236;-73.040;2023-05-07T12:41:00;10.40;99.90
31527;DHT22;18136;42.236;-73.040;2023-05-07T12:43:28;10.60;99.90
31527;DHT22;18136;42.236;-73.040;2023-05-07T12:46:06;10.70;99.90
31527;DHT22;18136;42.236;-73.040;2023-05-07T12:48:37;10.90;99.90
31527;DHT22;18136;42.236;-73.040;2023-05-07T12:51:06;11.10;99.90
31527;DHT22;18136;42.236;-73.040;2023-05-07T12:53:40;11.30;99.90
31527;DHT22;18136;42.236;-73.040;2023-05-07T12:56:09;11.50;99.90
31527;DHT22;18136;42.236;-73.040;2023-05-07T12:58:36;11.70;99.90
31527;DHT22;18136;42.236;-73.040;2023-05-07T13:01:07;12.00;99.90
31527;DHT22;18136;42.236;-73.040;2023-05-07T13:03:36;12.20;99.90
31527;DHT22;18136;42.236;-73.040;2023-05-07T13:06:08;12.40;99.90
31527;DHT22;18136;42.236;-73.040;2023-05-07T13:08:43;12.70;99.90
31527;DHT22;18136;42.236;-73.040;2023-05-07T13:11:10;12.80;99.90
31527;DHT22;18136;42.236;-73.040;2023-05-07T13:14:28;13.00;99.90
31527;DHT22;18136;42.236;-73.040;2023-05-07T13:16:34;13.20;99.90
31527;DHT22;18136;42.236;-73.040;2023-05-07T13:19:00;13.40;99.90
31527;DHT22;18136;42.236;-73.040;2023-05-07T13:21:27;13.50;99.90
31527;DHT22;18136;42.236;-73.040;2023-05-07T13:23:53;13.70;99.90
31527;DHT22;18136;42.236;-73.040;2023-05-07T13:26:20;13.80;99.90
31527;DHT22;18136;42.236;-73.040;2023-05-07T13:28:46;13.90;99.90
31527;DHT22;18136;42.236;-73.040;2023-05-07T13:31:13;14.00;99.90
31527;DHT22;18136;42.236;-73.040;2023-05-07T13:33:39;14.10;99.90
31527;DHT22;18136;42.236;-73.040;2023-05-07T13:36:06;14.30;99.90
31527;DHT22;18136;42.236;-73.040;2023-05-07T13:38:38;14.40;99.90
31527;DHT22;18136;42.236;-73.040;2023-05-07T13:41:04;14.50;99.90
31527;DHT22;18136;42.236;-73.040;2023-05-07T13:43:39;14.60;99.90
31527;DHT22;18136;42.236;-73.040;2023-05-07T13:46:06;14.70;99.90
31527;DHT22;18136;42.236;-73.040;2023-05-07T13:48:32;14.80;99.90
31527;DHT22;18136;42.236;-73.040;2023-05-07T13:50:59;15.10;99.90
31527;DHT22;18136;42.236;-73.040;2023-05-07T13:53:28;15.10;99.90
31527;DHT22;18136;42.236;-73.040;2023-05-07T13:55:55;15.20;99.90
31527;DHT22;18136;42.236;-73.040;2023-05-07T13:58:21;15.30;99.90
31527;DHT22;18136;42.236;-73.040;2023-05-07T14:00:48;15.40;99.90
31527;DHT22;18136;42.236;-73.040;2023-05-07T14:03:21;15.60;99.90
31527;DHT22;18136;42.236;-73.040;2023-05-07T14:05:54;15.90;99.90
31527;DHT22;18136;42.236;-73.040;2023-05-07T14:08:27;16.10;99.90
31527;DHT22;18136;42.236;-73.040;2023-05-07T14:10:56;16.30;99.90
31527;DHT22;18136;42.236;-73.040;2023-05-07T14:13:23;16.30;99.90
31527;DHT22;18136;42.236;-73.040;2023-05-07T14:15:49;16.40;99.90
31527;DHT22;18136;42.236;-73.040;2023-05-07T14:18:16;16.60;99.90
31527;DHT22;18136;42.236;-73.040;2023-05-07T14:20:42;16.80;99.90
31527;DHT22;18136;42.236;-73.040;2023-05-07T14:23:14;17.00;99.90
31527;DHT22;18136;42.236;-73.040;2023-05-07T14:25:49;17.10;99.90
31527;DHT22;18136;42.236;-73.040;2023-05-07T14:28:19;17.10;99.90
31527;DHT22;18136;42.236;-73.040;2023-05-07T14:30:48;17.20;99.90
31527;DHT22;18136;42.236;-73.040;2023-05-07T14:33:15;17.30;99.90
31527;DHT22;18136;42.236;-73.040;2023-05-07T14:35:44;17.40;99.90
31527;DHT22;18136;42.236;-73.040;2023-05-07T14:38:14;17.10;99.90
31527;DHT22;18136;42.236;-73.040;2023-05-07T14:40:41;17.30;99.60
31527;DHT22;18136;42.236;-73.040;2023-05-07T14:43:11;17.40;99.90
31527;DHT22;18136;42.236;-73.040;2023-05-07T14:45:37;17.60;99.90
31527;DHT22;18136;42.236;-73.040;2023-05-07T14:48:04;17.70;99.90
31527;DHT22;18136;42.236;-73.040;2023-05-07T14:50:38;17.90;99.60
31527;DHT22;18136;42.236;-73.040;2023-05-07T14:53:04;17.70;97.70
31527;DHT22;18136;42.236;-73.040;2023-05-07T14:55:37;17.60;98.90
31527;DHT22;18136;42.236;-73.040;2023-05-07T14:58:04;17.50;97.70
31527;DHT22;18136;42.236;-73.040;2023-05-07T15:00:40;17.60;97.70
31527;DHT22;18136;42.236;-73.040;2023-05-07T15:03:08;17.60;97.70
31527;DHT22;18136;42.236;-73.040;2023-05-07T15:05:35;17.70;98.00
31527;DHT22;18136;42.236;-73.040;2023-05-07T15:08:02;17.70;94.20
31527;DHT22;18136;42.236;-73.040;2023-05-07T15:10:28;17.80;96.50
31527;DHT22;18136;42.236;-73.040;2023-05-07T15:12:55;17.90;96.30
31527;DHT22;18136;42.236;-73.040;2023-05-07T15:15:21;18.10;97.70
31527;DHT22;18136;42.236;-73.040;2023-05-07T15:17:50;18.30;97.50
31527;DHT22;18136;42.236;-73.040;2023-05-07T15:20:17;18.50;97.60
31527;DHT22;18136;42.236;-73.040;2023-05-07T15:22:43;18.70;96.10
31527;DHT22;18136;42.236;-73.040;2023-05-07T15:25:10;18.70;96.70
31527;DHT22;18136;42.236;-73.040;2023-05-07T15:27:37;18.80;94.90